sensor_id;sensor_type;location;lat;lon;timestamp;temperature;humidity
74968;SHT30;63523;51.880;12.630;2023-01-15T00:01:29;9.22;86.96
74968;SHT30;63523;51.880;12.630;2023-01-15T00:03:57;9.16;86.73
74968;SHT30;63523;51.880;12.630;2023-01-15T00:06:24;9.25;86.10
74968;SHT30;63523;51.880;12.630;2023-01-15T00:08:50;9.32;86.52
74968;SHT30;63523;51.880;12.630;2023-01-15T00:11:17;9.31;85.71
74968;SHT30;63523;51.880;12.630;2023-01-15T00:13:43;9.38;85.99
74968;SHT30;63523;51.880;12.630;2023-01-15T00:16:18;9.35;85.75
74968;SHT30;63523;51.880;12.630;2023-01-15T00:18:49;9.40;85.64
74968;SHT30;63523;51.880;12.630;2023-01-15T00:21:16;9.43;84.98
74968;SHT30;63523;51.880;12.630;2023-01-15T00:23:41;9.60;84.30
74968;SHT30;63523;51.880;12.630;2023-01-15T00:26:28;9.71;84.22
74968;SHT30;63523;51.880;12.630;2023-01-15T00:29:13;9.76;83.36
74968;SHT30;63523;51.880;12.630;2023-01-15T00:31:39;9.76;83.98
74968;SHT30;63523;51.880;12.630;2023-01-15T00:34:04;9.73;83.42
74968;SHT30;63523;51.880;12.630;2023-01-15T00:36:30;9.77;83.27
74968;SHT30;63523;51.880;12.630;2023-01-15T00:38:55;9.69;84.27
74968;SHT30;63523;51.880;12.630;2023-01-15T00:41:21;9.77;83.59
74968;SHT30;63523;51.880;12.630;2023-01-15T00:43:47;9.87;83.78
74968;SHT30;63523;51.880;12.630;2023-01-15T00:46:12;9.86;83.92
74968;SHT30;63523;51.880;12.630;2023-01-15T00:48:38;9.80;83.58
74968;SHT30;63523;51.880;12.630;2023-01-15T00:51:05;9.88;83.37
74968;SHT30;63523;51.880;12.630;2023-01-15T00:53:31;9.94;83.13
74968;SHT30;63523;51.880;12.630;2023-01-15T00:55:57;9.87;83.49
74968;SHT30;63523;51.880;12.630;2023-01-15T00:58:23;9.81;83.64
74968;SHT30;63523;51.880;12.630;2023-01-15T01:00:56;9.86;83.04
74968;SHT30;63523;51.880;12.630;2023-01-15T01:03:22;9.90;83.45
74968;SHT30;63523;51.880;12.630;2023-01-15T01:05:48;9.99;82.82
74968;SHT30;63523;51.880;12.630;2023-01-15T01:08:14;10.08;83.50
74968;SHT30;63523;51.880;12.630;2023-01-15T01:10:40;9.97;83.26
74968;SHT30;63523;51.880;12.630;2023-01-15T01:13:05;9.98;83.29
74968;SHT30;63523;51.880;12.630;2023-01-15T01:15:35;9.91;83.79
74968;SHT30;63523;51.880;12.630;2023-01-15T01:18:01;10.16;82.97
74968;SHT30;63523;51.880;12.630;2023-01-15T01:20:27;10.05;83.27
74968;SHT30;63523;51.880;12.630;2023-01-15T01:22:53;10.01;83.91
74968;SHT30;63523;51.880;12.630;2023-01-15T01:25:19;9.97;83.65
74968;SHT30;63523;51.880;12.630;2023-01-15T01:27:45;9.93;83.93
74968;SHT30;63523;51.880;12.630;2023-01-15T01:30:11;9.77;84.71
74968;SHT30;63523;51.880;12.630;2023-01-15T01:32:37;9.86;84.36
74968;SHT30;63523;51.880;12.630;2023-01-15T01:35:03;9.84;84.07
74968;SHT30;63523;51.880;12.630;2023-01-15T01:37:29;9.84;84.33
74968;SHT30;63523;51.880;12.630;2023-01-15T01:39:54;9.95;84.36
74968;SHT30;63523;51.880;12.630;2023-01-15T01:42:20;10.04;83.44
74968;SHT30;63523;51.880;12.630;2023-01-15T01:47:14;10.02;83.76
74968;SHT30;63523;51.880;12.630;2023-01-15T01:49:44;9.99;83.78
74968;SHT30;63523;51.880;12.630;2023-01-15T01:52:15;10.05;83.99
74968;SHT30;63523;51.880;12.630;2023-01-15T01:54:44;9.93;84.59
74968;SHT30;63523;51.880;12.630;2023-01-15T01:57:11;10.07;84.10
74968;SHT30;63523;51.880;12.630;2023-01-15T01:59:37;9.93;84.80
74968;SHT30;63523;51.880;12.630;2023-01-15T02:02:03;9.93;85.03
74968;SHT30;63523;51.880;12.630;2023-01-15T02:04:29;9.94;85.00
74968;SHT30;63523;51.880;12.630;2023-01-15T02:06:55;9.86;85.67
74968;SHT30;63523;51.880;12.630;2023-01-15T02:09:22;9.97;85.23
74968;SHT30;63523;51.880;12.630;2023-01-15T02:11:49;9.81;85.69
74968;SHT30;63523;51.880;12.630;2023-01-15T02:14:30;9.99;85.22
74968;SHT30;63523;51.880;12.630;2023-01-15T02:18:04;9.99;85.88
74968;SHT30;63523;51.880;12.630;2023-01-15T02:23:03;10.02;86.13
74968;SHT30;63523;51.880;12.630;2023-01-15T02:26:04;10.01;86.20
74968;SHT30;63523;51.880;12.630;2023-01-15T02:28:39;9.95;86.47
74968;SHT30;63523;51.880;12.630;2023-01-15T02:31:15;9.81;87.63
74968;SHT30;63523;51.880;12.630;2023-01-15T02:33:59;9.81;87.57
74968;SHT30;63523;51.880;12.630;2023-01-15T02:36:30;9.88;87.17
74968;SHT30;63523;51.880;12.630;2023-01-15T02:39:00;9.94;87.25
74968;SHT30;63523;51.880;12.630;2023-01-15T02:41:35;9.88;87.39
74968;SHT30;63523;51.880;12.630;2023-01-15T02:44:03;9.86;87.26
74968;SHT30;63523;51.880;12.630;2023-01-15T02:46:32;10.02;86.97
74968;SHT30;63523;51.880;12.630;2023-01-15T02:48:59;9.97;87.26
74968;SHT30;63523;51.880;12.630;2023-01-15T02:51:30;9.81;87.91
74968;SHT30;63523;51.880;12.630;2023-01-15T02:54:00;9.88;88.12
74968;SHT30;63523;51.880;12.630;2023-01-15T02:56:30;9.86;87.87
74968;SHT30;63523;51.880;12.630;2023-01-15T02:59:04;9.77;88.60
74968;SHT30;63523;51.880;12.630;2023-01-15T03:01:40;9.81;88.47
74968;SHT30;63523;51.880;12.630;2023-01-15T03:04:16;9.73;88.85
74968;SHT30;63523;51.880;12.630;2023-01-15T03:07:03;9.70;89.31
74968;SHT30;63523;51.880;12.630;2023-01-15T03:09:30;9.74;88.96
74968;SHT30;63523;51.880;12.630;2023-01-15T03:12:19;9.81;88.75
74968;SHT30;63523;51.880;12.630;2023-01-15T03:20:26;9.80;88.90
74968;SHT30;63523;51.880;12.630;2023-01-15T03:22:57;9.90;88.65
74968;SHT30;63523;51.880;12.630;2023-01-15T03:25:38;9.84;89.12
74968;SHT30;63523;51.880;12.630;2023-01-15T03:28:04;9.90;89.36
74968;SHT30;63523;51.880;12.630;2023-01-15T03:30:32;9.78;89.36
74968;SHT30;63523;51.880;12.630;2023-01-15T03:32:57;9.77;89.73
74968;SHT30;63523;51.880;12.630;2023-01-15T03:38:07;9.87;89.39
74968;SHT30;63523;51.880;12.630;2023-01-15T03:40:36;9.86;89.48
74968;SHT30;63523;51.880;12.630;2023-01-15T03:43:08;9.83;89.79
74968;SHT30;63523;51.880;12.630;2023-01-15T03:45:56;9.77;90.22
74968;SHT30;63523;51.880;12.630;2023-01-15T03:48:33;9.76;90.10
74968;SHT30;63523;51.880;12.630;2023-01-15T03:51:20;9.59;91.20
74968;SHT30;63523;51.880;12.630;2023-01-15T03:53:50;9.52;91.64
74968;SHT30;63523;51.880;12.630;2023-01-15T03:56:23;9.67;90.81
74968;SHT30;63523;51.880;12.630;2023-01-15T03:58:59;9.59;91.18
74968;SHT30;63523;51.880;12.630;2023-01-15T04:01:30;9.49;91.56
74968;SHT30;63523;51.880;12.630;2023-01-15T04:03:57;9.39;91.78
74968;SHT30;63523;51.880;12.630;2023-01-15T04:06:26;9.49;91.54
74968;SHT30;63523;51.880;12.630;2023-01-15T04:08:54;9.57;84.41
74968;SHT30;63523;51.880;12.630;2023-01-15T04:11:24;8.90;84.98
74968;SHT30;63523;51.880;12.630;2023-01-15T04:13:50;8.26;86.14
74968;SHT30;63523;51.880;12.630;2023-01-15T04:16:22;7.97;86.36
74968;SHT30;63523;51.880;12.630;2023-01-15T04:18:48;7.76;86.09
74968;SHT30;63523;51.880;12.630;2023-01-15T04:21:13;7.62;87.00
74968;SHT30;63523;51.880;12.630;2023-01-15T04:23:39;7.48;87.36
74968;SHT30;63523;51.880;12.630;2023-01-15T04:26:04;7.19;88.86
74968;SHT30;63523;51.880;12.630;2023-01-15T04:28:32;7.29;88.49
74968;SHT30;63523;51.880;12.630;2023-01-15T04:30:58;7.12;88.73
74968;SHT30;63523;51.880;12.630;2023-01-15T04:33:24;7.19;88.52
74968;SHT30;63523;51.880;12.630;2023-01-15T04:35:50;7.09;88.59
74968;SHT30;63523;51.880;12.630;2023-01-15T04:38:15;7.03;87.39
74968;SHT30;63523;51.880;12.630;2023-01-15T04:40:43;6.96;85.92
74968;SHT30;63523;51.880;12.630;2023-01-15T04:43:27;6.84;85.72
74968;SHT30;63523;51.880;12.630;2023-01-15T04:46:11;6.66;85.45
74968;SHT30;63523;51.880;12.630;2023-01-15T04:48:40;6.53;85.72
74968;SHT30;63523;51.880;12.630;2023-01-15T04:51:06;6.38;85.48
74968;SHT30;63523;51.880;12.630;2023-01-15T04:53:32;6.26;86.08
74968;SHT30;63523;51.880;12.630;2023-01-15T04:56:03;6.18;86.48
74968;SHT30;63523;51.880;12.630;2023-01-15T04:58:29;6.13;86.01
74968;SHT30;63523;51.880;12.630;2023-01-15T05:00:55;5.97;87.39
74968;SHT30;63523;51.880;12.630;2023-01-15T05:03:21;5.91;87.62
74968;SHT30;63523;51.880;12.630;2023-01-15T05:05:46;5.86;87.65
74968;SHT30;63523;51.880;12.630;2023-01-15T05:08:12;5.83;87.88
74968;SHT30;63523;51.880;12.630;2023-01-15T05:10:37;5.83;87.78
74968;SHT30;63523;51.880;12.630;2023-01-15T05:13:03;5.80;88.03
74968;SHT30;63523;51.880;12.630;2023-01-15T05:15:28;5.86;87.35
74968;SHT30;63523;51.880;12.630;2023-01-15T05:17:55;5.79;87.30
74968;SHT30;63523;51.880;12.630;2023-01-15T05:20:20;5.70;87.18
74968;SHT30;63523;51.880;12.630;2023-01-15T05:22:46;5.63;87.78
74968;SHT30;63523;51.880;12.630;2023-01-15T05:25:11;5.55;88.21
74968;SHT30;63523;51.880;12.630;2023-01-15T05:27:37;5.56;88.47
74968;SHT30;63523;51.880;12.630;2023-01-15T05:30:02;5.51;88.24
74968;SHT30;63523;51.880;12.630;2023-01-15T05:32:29;5.51;88.55
74968;SHT30;63523;51.880;12.630;2023-01-15T05:34:54;5.52;88.08
74968;SHT30;63523;51.880;12.630;2023-01-15T05:37:20;5.51;88.40
74968;SHT30;63523;51.880;12.630;2023-01-15T05:39:45;5.58;88.54
74968;SHT30;63523;51.880;12.630;2023-01-15T05:42:11;5.55;88.27
74968;SHT30;63523;51.880;12.630;2023-01-15T05:44:36;5.53;88.67
74968;SHT30;63523;51.880;12.630;2023-01-15T05:47:02;5.58;88.97
74968;SHT30;63523;51.880;12.630;2023-01-15T05:49:31;5.56;88.81
74968;SHT30;63523;51.880;12.630;2023-01-15T05:51:57;5.56;88.57
74968;SHT30;63523;51.880;12.630;2023-01-15T05:54:27;5.53;88.83
74968;SHT30;63523;51.880;12.630;2023-01-15T05:56:54;5.55;89.17
74968;SHT30;63523;51.880;12.630;2023-01-15T05:59:25;5.56;88.91
74968;SHT30;63523;51.880;12.630;2023-01-15T06:01:51;5.56;88.65
74968;SHT30;63523;51.880;12.630;2023-01-15T06:04:17;5.55;89.12
74968;SHT30;63523;51.880;12.630;2023-01-15T06:06:46;5.55;89.01
74968;SHT30;63523;51.880;12.630;2023-01-15T06:09:12;5.56;89.30
74968;SHT30;63523;51.880;12.630;2023-01-15T06:11:38;5.60;89.58
74968;SHT30;63523;51.880;12.630;2023-01-15T06:14:04;5.63;90.32
74968;SHT30;63523;51.880;12.630;2023-01-15T06:16:30;5.65;90.66
74968;SHT30;63523;51.880;12.630;2023-01-15T06:19:01;5.69;90.63
74968;SHT30;63523;51.880;12.630;2023-01-15T06:21:28;5.69;90.54
74968;SHT30;63523;51.880;12.630;2023-01-15T06:23:57;5.70;90.62
74968;SHT30;63523;51.880;12.630;2023-01-15T06:26:23;5.71;90.36
74968;SHT30;63523;51.880;12.630;2023-01-15T06:28:48;5.71;90.51
74968;SHT30;63523;51.880;12.630;2023-01-15T06:31:17;5.66;90.48
74968;SHT30;63523;51.880;12.630;2023-01-15T06:33:42;5.63;90.75
74968;SHT30;63523;51.880;12.630;2023-01-15T06:36:11;5.62;90.59
74968;SHT30;63523;51.880;12.630;2023-01-15T06:38:38;5.60;90.81
74968;SHT30;63523;51.880;12.630;2023-01-15T06:41:06;5.58;90.92
74968;SHT30;63523;51.880;12.630;2023-01-15T06:43:54;5.55;90.91
74968;SHT30;63523;51.880;12.630;2023-01-15T06:46:47;5.55;91.13
74968;SHT30;63523;51.880;12.630;2023-01-15T06:49:32;5.58;91.30
74968;SHT30;63523;51.880;12.630;2023-01-15T06:51:58;5.55;91.21
74968;SHT30;63523;51.880;12.630;2023-01-15T06:54:24;5.59;91.63
74968;SHT30;63523;51.880;12.630;2023-01-15T06:56:50;5.55;91.26
74968;SHT30;63523;51.880;12.630;2023-01-15T06:59:17;5.59;91.44
74968;SHT30;63523;51.880;12.630;2023-01-15T07:01:42;5.60;91.34
74968;SHT30;63523;51.880;12.630;2023-01-15T07:04:08;5.58;91.42
74968;SHT30;63523;51.880;12.630;2023-01-15T07:06:33;5.55;90.83
74968;SHT30;63523;51.880;12.630;2023-01-15T07:08:59;5.52;91.30
74968;SHT30;63523;51.880;12.630;2023-01-15T07:11:24;5.49;91.38
74968;SHT30;63523;51.880;12.630;2023-01-15T07:13:50;5.51;91.37
74968;SHT30;63523;51.880;12.630;2023-01-15T07:16:16;5.51;91.41
74968;SHT30;63523;51.880;12.630;2023-01-15T07:18:53;5.52;91.33
74968;SHT30;63523;51.880;12.630;2023-01-15T07:21:19;5.53;91.29
74968;SHT30;63523;51.880;12.630;2023-01-15T07:23:45;5.56;90.92
74968;SHT30;63523;51.880;12.630;2023-01-15T07:26:10;5.52;90.83
74968;SHT30;63523;51.880;12.630;2023-01-15T07:28:36;5.51;90.95
74968;SHT30;63523;51.880;12.630;2023-01-15T07:31:01;5.51;91.20
74968;SHT30;63523;51.880;12.630;2023-01-15T07:33:27;5.56;91.23
74968;SHT30;63523;51.880;12.630;2023-01-15T07:35:52;5.56;91.21
74968;SHT30;63523;51.880;12.630;2023-01-15T07:38:18;5.55;91.12
74968;SHT30;63523;51.880;12.630;2023-01-15T07:40:43;5.56;91.16
74968;SHT30;63523;51.880;12.630;2023-01-15T07:43:09;5.58;91.13
74968;SHT30;63523;51.880;12.630;2023-01-15T07:45:53;5.60;90.51
74968;SHT30;63523;51.880;12.630;2023-01-15T07:48:38;5.56;90.55
74968;SHT30;63523;51.880;12.630;2023-01-15T07:51:22;5.60;90.53
74968;SHT30;63523;51.880;12.630;2023-01-15T07:53:47;5.59;90.03
74968;SHT30;63523;51.880;12.630;2023-01-15T07:56:13;5.60;90.40
74968;SHT30;63523;51.880;12.630;2023-01-15T07:58:39;5.62;90.24
74968;SHT30;63523;51.880;12.630;2023-01-15T08:01:04;5.62;89.99
74968;SHT30;63523;51.880;12.630;2023-01-15T08:03:30;5.65;90.08
74968;SHT30;63523;51.880;12.630;2023-01-15T08:05:56;5.66;89.99
74968;SHT30;63523;51.880;12.630;2023-01-15T08:08:21;5.73;89.31
74968;SHT30;63523;51.880;12.630;2023-01-15T08:10:47;5.98;88.52
74968;SHT30;63523;51.880;12.630;2023-01-15T08:13:34;5.96;88.20
74968;SHT30;63523;51.880;12.630;2023-01-15T08:16:18;6.01;87.94
74968;SHT30;63523;51.880;12.630;2023-01-15T08:18:43;6.00;87.67
74968;SHT30;63523;51.880;12.630;2023-01-15T08:21:14;6.03;87.83
74968;SHT30;63523;51.880;12.630;2023-01-15T08:23:41;6.07;87.53
74968;SHT30;63523;51.880;12.630;2023-01-15T08:26:07;6.11;87.26
74968;SHT30;63523;51.880;12.630;2023-01-15T08:28:33;6.17;86.40
74968;SHT30;63523;51.880;12.630;2023-01-15T08:30:58;6.18;86.81
74968;SHT30;63523;51.880;12.630;2023-01-15T08:33:24;6.20;86.57
74968;SHT30;63523;51.880;12.630;2023-01-15T08:35:49;6.24;85.27
74968;SHT30;63523;51.880;12.630;2023-01-15T08:38:15;6.22;85.82
74968;SHT30;63523;51.880;12.630;2023-01-15T08:40:40;6.24;86.81
74968;SHT30;63523;51.880;12.630;2023-01-15T08:43:25;6.17;85.26
74968;SHT30;63523;51.880;12.630;2023-01-15T08:45:51;6.20;86.00
74968;SHT30;63523;51.880;12.630;2023-01-15T08:48:17;6.32;85.32
74968;SHT30;63523;51.880;12.630;2023-01-15T08:50:42;6.38;85.37
74968;SHT30;63523;51.880;12.630;2023-01-15T08:53:11;6.43;84.96
74968;SHT30;63523;51.880;12.630;2023-01-15T08:55:37;6.52;84.47
74968;SHT30;63523;51.880;12.630;2023-01-15T08:58:02;6.63;84.59
74968;SHT30;63523;51.880;12.630;2023-01-15T09:00:28;6.69;84.21
74968;SHT30;63523;51.880;12.630;2023-01-15T09:02:54;6.63;83.62
74968;SHT30;63523;51.880;12.630;2023-01-15T09:05:19;6.63;82.28
74968;SHT30;63523;51.880;12.630;2023-01-15T09:07:45;6.70;82.36
74968;SHT30;63523;51.880;12.630;2023-01-15T09:10:11;6.65;82.95
74968;SHT30;63523;51.880;12.630;2023-01-15T09:12:37;6.81;82.40
74968;SHT30;63523;51.880;12.630;2023-01-15T09:15:02;6.84;81.14
74968;SHT30;63523;51.880;12.630;2023-01-15T09:17:29;6.86;81.67
74968;SHT30;63523;51.880;12.630;2023-01-15T09:19:55;6.93;80.65
74968;SHT30;63523;51.880;12.630;2023-01-15T09:22:20;6.87;81.66
74968;SHT30;63523;51.880;12.630;2023-01-15T09:24:46;6.90;81.26
74968;SHT30;63523;51.880;12.630;2023-01-15T09:27:11;6.88;79.53
74968;SHT30;63523;51.880;12.630;2023-01-15T09:29:37;6.98;79.03
74968;SHT30;63523;51.880;12.630;2023-01-15T09:32:03;6.84;79.87
74968;SHT30;63523;51.880;12.630;2023-01-15T09:34:28;6.96;79.60
74968;SHT30;63523;51.880;12.630;2023-01-15T09:36:54;6.91;80.63
74968;SHT30;63523;51.880;12.630;2023-01-15T09:39:19;6.91;79.59
74968;SHT30;63523;51.880;12.630;2023-01-15T09:52:49;7.18;77.82
74968;SHT30;63523;51.880;12.630;2023-01-15T09:57:50;7.19;77.33
74968;SHT30;63523;51.880;12.630;2023-01-15T10:00:19;7.05;78.77
74968;SHT30;63523;51.880;12.630;2023-01-15T10:02:57;7.22;79.30
74968;SHT30;63523;51.880;12.630;2023-01-15T10:10:43;7.08;77.15
74968;SHT30;63523;51.880;12.630;2023-01-15T10:13:27;7.05;78.15
74968;SHT30;63523;51.880;12.630;2023-01-15T10:15:55;7.11;78.01
74968;SHT30;63523;51.880;12.630;2023-01-15T10:18:24;7.29;76.88
74968;SHT30;63523;51.880;12.630;2023-01-15T10:24:05;7.32;76.14
74968;SHT30;63523;51.880;12.630;2023-01-15T10:26:35;7.19;76.99
74968;SHT30;63523;51.880;12.630;2023-01-15T10:31:52;7.04;77.12
74968;SHT30;63523;51.880;12.630;2023-01-15T10:37:46;7.26;75.04
74968;SHT30;63523;51.880;12.630;2023-01-15T10:46:12;7.59;75.31
74968;SHT30;63523;51.880;12.630;2023-01-15T10:48:46;7.76;74.60
74968;SHT30;63523;51.880;12.630;2023-01-15T10:54:26;7.87;73.87
74968;SHT30;63523;51.880;12.630;2023-01-15T10:57:10;7.79;74.70
74968;SHT30;63523;51.880;12.630;2023-01-15T10:59:47;7.81;74.18
74968;SHT30;63523;51.880;12.630;2023-01-15T11:04:47;7.94;73.68
74968;SHT30;63523;51.880;12.630;2023-01-15T11:07:13;7.86;74.39
74968;SHT30;63523;51.880;12.630;2023-01-15T11:09:40;7.87;74.10
74968;SHT30;63523;51.880;12.630;2023-01-15T11:12:27;7.73;74.59
74968;SHT30;63523;51.880;12.630;2023-01-15T11:15:21;7.95;73.26
74968;SHT30;63523;51.880;12.630;2023-01-15T11:18:16;7.95;73.64
74968;SHT30;63523;51.880;12.630;2023-01-15T11:21:10;8.05;72.56
74968;SHT30;63523;51.880;12.630;2023-01-15T11:23:36;7.93;72.91
74968;SHT30;63523;51.880;12.630;2023-01-15T11:26:02;8.05;72.53
74968;SHT30;63523;51.880;12.630;2023-01-15T11:28:36;8.05;72.97
74968;SHT30;63523;51.880;12.630;2023-01-15T11:31:05;7.99;72.11
74968;SHT30;63523;51.880;12.630;2023-01-15T11:33:31;8.02;71.89
74968;SHT30;63523;51.880;12.630;2023-01-15T11:36:00;8.12;71.54
74968;SHT30;63523;51.880;12.630;2023-01-15T11:38:41;8.05;72.01
74968;SHT30;63523;51.880;12.630;2023-01-15T11:43:55;8.04;72.25
74968;SHT30;63523;51.880;12.630;2023-01-15T11:46:39;7.94;72.86
74968;SHT30;63523;51.880;12.630;2023-01-15T11:49:24;8.08;71.80
74968;SHT30;63523;51.880;12.630;2023-01-15T11:52:28;8.04;72.14
74968;SHT30;63523;51.880;12.630;2023-01-15T11:54:54;8.11;71.69
74968;SHT30;63523;51.880;12.630;2023-01-15T11:57:26;8.09;70.92
74968;SHT30;63523;51.880;12.630;2023-01-15T11:59:52;8.08;71.50
74968;SHT30;63523;51.880;12.630;2023-01-15T12:02:40;8.02;70.83
74968;SHT30;63523;51.880;12.630;2023-01-15T12:05:18;7.98;72.09
74968;SHT30;63523;51.880;12.630;2023-01-15T12:07:45;8.02;72.20
74968;SHT30;63523;51.880;12.630;2023-01-15T12:10:19;8.31;69.40
74968;SHT30;63523;51.880;12.630;2023-01-15T12:16:15;8.28;69.41
74968;SHT30;63523;51.880;12.630;2023-01-15T12:19:07;8.12;69.55
74968;SHT30;63523;51.880;12.630;2023-01-15T12:29:45;8.05;68.80
74968;SHT30;63523;51.880;12.630;2023-01-15T12:32:17;8.04;68.05
74968;SHT30;63523;51.880;12.630;2023-01-15T12:35:04;8.08;68.20
74968;SHT30;63523;51.880;12.630;2023-01-15T12:37:38;7.94;69.58
74968;SHT30;63523;51.880;12.630;2023-01-15T12:40:37;7.86;68.92
74968;SHT30;63523;51.880;12.630;2023-01-15T12:43:02;7.90;68.47
74968;SHT30;63523;51.880;12.630;2023-01-15T12:45:49;7.94;68.54
74968;SHT30;63523;51.880;12.630;2023-01-15T12:50:58;8.01;68.72
74968;SHT30;63523;51.880;12.630;2023-01-15T12:55:58;7.99;68.01
74968;SHT30;63523;51.880;12.630;2023-01-15T13:01:55;8.01;68.92
74968;SHT30;63523;51.880;12.630;2023-01-15T13:04:48;8.01;67.96
74968;SHT30;63523;51.880;12.630;2023-01-15T13:12:22;7.76;70.14
74968;SHT30;63523;51.880;12.630;2023-01-15T13:14:49;7.88;68.42
74968;SHT30;63523;51.880;12.630;2023-01-15T13:20:19;7.73;68.52
74968;SHT30;63523;51.880;12.630;2023-01-15T13:29:04;7.86;68.61
74968;SHT30;63523;51.880;12.630;2023-01-15T13:38:03;7.65;70.10
74968;SHT30;63523;51.880;12.630;2023-01-15T13:40:40;7.63;68.69
74968;SHT30;63523;51.880;12.630;2023-01-15T13:43:41;7.59;68.79
74968;SHT30;63523;51.880;12.630;2023-01-15T13:46:10;7.62;68.93
74968;SHT30;63523;51.880;12.630;2023-01-15T13:48:45;7.63;68.04
74968;SHT30;63523;51.880;12.630;2023-01-15T13:51:26;7.48;68.76
74968;SHT30;63523;51.880;12.630;2023-01-15T13:53:52;7.21;69.55
74968;SHT30;63523;51.880;12.630;2023-01-15T13:56:30;7.14;69.44
74968;SHT30;63523;51.880;12.630;2023-01-15T13:59:02;7.12;69.94
74968;SHT30;63523;51.880;12.630;2023-01-15T14:04:04;7.22;69.87
74968;SHT30;63523;51.880;12.630;2023-01-15T14:07:03;7.07;68.92
74968;SHT30;63523;51.880;12.630;2023-01-15T14:09:29;7.00;69.33
74968;SHT30;63523;51.880;12.630;2023-01-15T14:12:18;7.09;69.17
74968;SHT30;63523;51.880;12.630;2023-01-15T14:20:37;7.11;69.37
74968;SHT30;63523;51.880;12.630;2023-01-15T14:34:31;7.11;70.28
74968;SHT30;63523;51.880;12.630;2023-01-15T14:39:45;7.12;69.76
74968;SHT30;63523;51.880;12.630;2023-01-15T14:47:51;6.93;70.13
74968;SHT30;63523;51.880;12.630;2023-01-15T14:50:30;7.05;69.63
74968;SHT30;63523;51.880;12.630;2023-01-15T14:53:26;6.97;70.41
74968;SHT30;63523;51.880;12.630;2023-01-15T14:56:12;6.80;70.76
74968;SHT30;63523;51.880;12.630;2023-01-15T14:59:09;6.84;70.12
74968;SHT30;63523;51.880;12.630;2023-01-15T15:02:00;6.87;69.37
74968;SHT30;63523;51.880;12.630;2023-01-15T15:04:46;6.84;69.40
74968;SHT30;63523;51.880;12.630;2023-01-15T15:07:21;6.81;69.27
74968;SHT30;63523;51.880;12.630;2023-01-15T15:09:58;6.83;68.93
74968;SHT30;63523;51.880;12.630;2023-01-15T15:15:22;6.63;69.37
74968;SHT30;63523;51.880;12.630;2023-01-15T15:18:19;6.65;69.83
74968;SHT30;63523;51.880;12.630;2023-01-15T15:21:09;6.69;69.31
74968;SHT30;63523;51.880;12.630;2023-01-15T15:24:00;6.62;69.02
74968;SHT30;63523;51.880;12.630;2023-01-15T15:26:29;6.56;69.41
74968;SHT30;63523;51.880;12.630;2023-01-15T15:29:03;6.48;69.44
74968;SHT30;63523;51.880;12.630;2023-01-15T15:31:34;6.54;68.94
74968;SHT30;63523;51.880;12.630;2023-01-15T15:34:01;6.41;69.44
74968;SHT30;63523;51.880;12.630;2023-01-15T15:36:29;6.36;70.08
74968;SHT30;63523;51.880;12.630;2023-01-15T15:39:02;6.17;71.03
74968;SHT30;63523;51.880;12.630;2023-01-15T15:41:31;6.01;70.78
74968;SHT30;63523;51.880;12.630;2023-01-15T15:45:13;6.08;71.09
74968;SHT30;63523;51.880;12.630;2023-01-15T15:47:27;5.94;71.97
74968;SHT30;63523;51.880;12.630;2023-01-15T15:50:28;5.81;72.65
74968;SHT30;63523;51.880;12.630;2023-01-15T15:52:56;5.94;72.06
74968;SHT30;63523;51.880;12.630;2023-01-15T15:55:27;6.10;71.47
74968;SHT30;63523;51.880;12.630;2023-01-15T15:57:59;5.97;71.50
74968;SHT30;63523;51.880;12.630;2023-01-15T16:00:32;5.87;72.16
74968;SHT30;63523;51.880;12.630;2023-01-15T16:03:03;5.89;71.73
74968;SHT30;63523;51.880;12.630;2023-01-15T16:05:30;5.93;71.58
74968;SHT30;63523;51.880;12.630;2023-01-15T16:08:15;5.94;71.37
74968;SHT30;63523;51.880;12.630;2023-01-15T16:10:49;5.93;71.78
74968;SHT30;63523;51.880;12.630;2023-01-15T16:14:06;5.91;71.24
74968;SHT30;63523;51.880;12.630;2023-01-15T16:16:07;5.98;71.08
74968;SHT30;63523;51.880;12.630;2023-01-15T16:18:41;5.86;71.33
74968;SHT30;63523;51.880;12.630;2023-01-15T16:21:16;5.87;71.42
74968;SHT30;63523;51.880;12.630;2023-01-15T16:23:57;6.13;69.78
74968;SHT30;63523;51.880;12.630;2023-01-15T16:26:30;6.00;70.18
74968;SHT30;63523;51.880;12.630;2023-01-15T16:28:59;6.11;68.89
74968;SHT30;63523;51.880;12.630;2023-01-15T16:31:25;6.06;69.50
74968;SHT30;63523;51.880;12.630;2023-01-15T16:33:55;5.98;69.50
74968;SHT30;63523;51.880;12.630;2023-01-15T16:36:22;5.98;69.64
74968;SHT30;63523;51.880;12.630;2023-01-15T16:38:49;5.97;69.61
74968;SHT30;63523;51.880;12.630;2023-01-15T16:41:23;6.00;68.45
74968;SHT30;63523;51.880;12.630;2023-01-15T16:44:00;6.03;68.33
74968;SHT30;63523;51.880;12.630;2023-01-15T16:46:34;5.94;68.94
74968;SHT30;63523;51.880;12.630;2023-01-15T16:51:48;6.24;68.00
74968;SHT30;63523;51.880;12.630;2023-01-15T16:57:22;6.35;68.22
74968;SHT30;63523;51.880;12.630;2023-01-15T17:00:00;6.41;67.64
74968;SHT30;63523;51.880;12.630;2023-01-15T17:02:32;6.38;68.02
74968;SHT30;63523;51.880;12.630;2023-01-15T17:04:59;6.49;67.71
74968;SHT30;63523;51.880;12.630;2023-01-15T17:07:35;6.65;66.66
74968;SHT30;63523;51.880;12.630;2023-01-15T17:10:05;6.59;67.10
74968;SHT30;63523;51.880;12.630;2023-01-15T17:12:42;6.60;67.30
74968;SHT30;63523;51.880;12.630;2023-01-15T17:17:47;6.79;66.69
74968;SHT30;63523;51.880;12.630;2023-01-15T17:20:14;6.68;67.17
74968;SHT30;63523;51.880;12.630;2023-01-15T17:22:42;6.72;66.94
74968;SHT30;63523;51.880;12.630;2023-01-15T17:25:41;6.68;67.09
74968;SHT30;63523;51.880;12.630;2023-01-15T17:28:10;6.88;66.47
74968;SHT30;63523;51.880;12.630;2023-01-15T17:30:37;6.94;65.75
74968;SHT30;63523;51.880;12.630;2023-01-15T17:33:04;6.97;65.50
74968;SHT30;63523;51.880;12.630;2023-01-15T17:35:35;6.94;65.78
74968;SHT30;63523;51.880;12.630;2023-01-15T17:38:01;6.90;65.96
74968;SHT30;63523;51.880;12.630;2023-01-15T17:40:27;6.77;66.83
74968;SHT30;63523;51.880;12.630;2023-01-15T17:42:53;6.63;66.96
74968;SHT30;63523;51.880;12.630;2023-01-15T17:45:24;6.52;66.84
74968;SHT30;63523;51.880;12.630;2023-01-15T17:47:50;6.52;66.84
74968;SHT30;63523;51.880;12.630;2023-01-15T17:50:16;6.62;66.39
74968;SHT30;63523;51.880;12.630;2023-01-15T17:52:42;6.36;67.59
74968;SHT30;63523;51.880;12.630;2023-01-15T17:55:13;6.43;67.02
74968;SHT30;63523;51.880;12.630;2023-01-15T17:57:57;6.49;67.14
74968;SHT30;63523;51.880;12.630;2023-01-15T18:00:41;6.41;66.94
74968;SHT30;63523;51.880;12.630;2023-01-15T18:03:25;6.50;66.90
74968;SHT30;63523;51.880;12.630;2023-01-15T18:06:12;6.39;67.24
74968;SHT30;63523;51.880;12.630;2023-01-15T18:08:46;6.39;66.73
74968;SHT30;63523;51.880;12.630;2023-01-15T18:11:13;6.28;67.43
74968;SHT30;63523;51.880;12.630;2023-01-15T18:13:38;6.35;67.37